createdAt,value
2023-08-17T00:01:17.668Z,87.59
2023-08-17T00:03:44.323Z,88.32
2023-08-17T00:06:11.087Z,88.51
2023-08-17T00:08:37.632Z,89.01
2023-08-17T00:11:04.664Z,88.44
2023-08-17T00:13:31.253Z,88.47
2023-08-17T00:15:58.044Z,88.99
2023-08-17T00:18:24.724Z,88.20
2023-08-17T00:20:51.295Z,87.67
2023-08-17T00:23:17.852Z,87.23
2023-08-17T00:25:44.417Z,86.75
2023-08-17T00:28:11.027Z,87.66
2023-08-17T00:30:38.864Z,87.70
2023-08-17T00:33:05.817Z,86.82
2023-08-17T00:35:33.682Z,88.12
2023-08-17T00:38:01.033Z,89.08
2023-08-17T00:40:27.654Z,88.95
2023-08-17T00:42:54.256Z,87.67
2023-08-17T00:45:22.490Z,87.65
2023-08-17T00:47:49.187Z,87.51
2023-08-17T00:50:16.789Z,86.26
2023-08-17T00:52:43.816Z,87.63
2023-08-17T00:55:12.237Z,88.12
2023-08-17T00:57:38.866Z,87.96
2023-08-17T01:00:07.087Z,88.93
2023-08-17T01:02:34.312Z,88.52
2023-08-17T01:05:01.656Z,88.27
2023-08-17T01:07:28.739Z,88.19
2023-08-17T01:09:55.745Z,88.39
2023-08-17T01:12:33.203Z,87.67
2023-08-17T01:15:18.484Z,87.49
2023-08-17T01:17:51.122Z,88.36
2023-08-17T01:20:18.960Z,89.31
2023-08-17T01:22:48.723Z,88.73
2023-08-17T01:25:15.286Z,88.77
2023-08-17T01:27:46.599Z,88.08
2023-08-17T01:30:18.514Z,87.60
2023-08-17T01:32:57.919Z,88.24
2023-08-17T01:35:47.610Z,87.85
2023-08-17T01:38:19.287Z,88.44
2023-08-17T01:40:50.745Z,88.40
2023-08-17T01:43:17.630Z,88.27
2023-08-17T01:45:45.014Z,87.87
2023-08-17T01:48:11.849Z,87.85
2023-08-17T01:50:38.437Z,87.17
2023-08-17T01:53:05.188Z,86.93
2023-08-17T01:55:33.292Z,87.57
2023-08-17T01:58:00.170Z,88.01
2023-08-17T02:00:26.808Z,88.55
2023-08-17T02:02:53.374Z,88.01
2023-08-17T02:05:20.004Z,87.93
2023-08-17T02:07:46.674Z,87.57
2023-08-17T02:10:13.245Z,88.45
2023-08-17T02:12:39.789Z,87.57
2023-08-17T02:15:06.926Z,87.59
2023-08-17T02:17:33.602Z,88.26
2023-08-17T02:20:00.278Z,88.55
2023-08-17T02:22:27.086Z,87.66
2023-08-17T02:24:55.276Z,87.19
2023-08-17T02:27:22.920Z,87.33
2023-08-17T02:29:49.542Z,88.32
2023-08-17T02:32:16.099Z,88.84
2023-08-17T02:34:42.729Z,89.65
2023-08-17T02:37:09.285Z,89.79
2023-08-17T02:39:36.163Z,89.24
2023-08-17T02:42:02.705Z,89.40
2023-08-17T02:44:31.540Z,88.42
2023-08-17T02:46:58.077Z,87.68
2023-08-17T02:49:24.708Z,87.63
2023-08-17T02:51:51.323Z,88.51
2023-08-17T02:54:17.903Z,89.01
2023-08-17T02:56:44.476Z,88.51
2023-08-17T02:59:11.045Z,87.77
2023-08-17T03:01:37.665Z,87.54
2023-08-17T03:04:04.459Z,87.72
2023-08-17T03:06:31.033Z,88.85
2023-08-17T03:08:57.614Z,87.95
2023-08-17T03:11:24.196Z,88.37
2023-08-17T03:13:50.817Z,88.78
2023-08-17T03:16:17.483Z,88.99
2023-08-17T03:18:45.648Z,88.65
2023-08-17T03:21:13.030Z,87.50
2023-08-17T03:23:39.683Z,87.56
2023-08-17T03:26:06.267Z,86.79
2023-08-17T03:28:32.858Z,87.39
2023-08-17T03:30:59.536Z,87.87
2023-08-17T03:33:26.287Z,88.95
2023-08-17T03:35:52.957Z,89.08
2023-08-17T03:38:19.677Z,89.82
2023-08-17T03:40:50.135Z,89.36
2023-08-17T03:43:16.827Z,88.09
2023-08-17T03:45:43.953Z,87.88
2023-08-17T03:48:11.084Z,88.24
2023-08-17T03:50:37.752Z,88.45
2023-08-17T03:53:05.732Z,88.92
2023-08-17T03:55:32.433Z,89.03
2023-08-17T03:57:59.018Z,89.20
2023-08-17T04:00:25.572Z,88.72
2023-08-17T04:02:57.820Z,87.94
2023-08-17T04:05:24.399Z,87.83
2023-08-17T04:07:51.030Z,88.23
2023-08-17T04:10:17.606Z,88.20
2023-08-17T04:12:44.347Z,88.72
2023-08-17T04:15:11.129Z,89.09
2023-08-17T04:17:37.713Z,89.21
2023-08-17T04:20:07.766Z,88.70
2023-08-17T04:22:34.450Z,88.52
2023-08-17T04:25:01.041Z,88.56
2023-08-17T04:27:27.984Z,88.96
2023-08-17T04:29:54.928Z,88.72
2023-08-17T04:32:22.105Z,88.97
2023-08-17T04:34:49.323Z,88.21
2023-08-17T04:37:16.803Z,87.80
2023-08-17T04:39:44.718Z,88.00
2023-08-17T04:42:17.162Z,88.39
2023-08-17T04:44:44.587Z,89.16
2023-08-17T04:47:11.601Z,88.91
2023-08-17T04:49:38.899Z,89.05
2023-08-17T04:52:05.888Z,89.34
2023-08-17T04:54:32.660Z,89.18
2023-08-17T04:56:59.225Z,88.92
2023-08-17T04:59:25.963Z,88.66
2023-08-17T05:01:53.288Z,88.45
2023-08-17T05:04:19.864Z,88.61
2023-08-17T05:06:46.478Z,88.88
2023-08-17T05:09:13.302Z,89.29
2023-08-17T05:11:41.339Z,88.52
2023-08-17T05:14:08.205Z,88.87
2023-08-17T05:16:34.979Z,88.65
2023-08-17T05:19:01.744Z,88.15
2023-08-17T05:21:29.036Z,87.11
2023-08-17T05:23:55.675Z,87.66
2023-08-17T05:26:23.233Z,88.45
2023-08-17T05:28:49.802Z,88.07
2023-08-17T05:31:16.627Z,87.76
2023-08-17T05:33:48.165Z,87.33
2023-08-17T05:36:15.562Z,86.89
2023-08-17T05:38:42.189Z,86.87
2023-08-17T05:41:08.793Z,86.53
2023-08-17T05:43:35.407Z,86.40
2023-08-17T05:46:02.160Z,86.51
2023-08-17T05:48:28.764Z,86.22
2023-08-17T05:50:57.408Z,85.97
2023-08-17T05:53:23.970Z,86.94
2023-08-17T05:55:51.604Z,87.35
2023-08-17T05:58:18.282Z,87.65
2023-08-17T06:00:44.861Z,88.15
2023-08-17T06:03:11.841Z,87.75
2023-08-17T06:05:38.657Z,87.86
2023-08-17T06:08:05.589Z,87.15
2023-08-17T06:10:32.117Z,87.37
2023-08-17T06:12:59.029Z,87.17
2023-08-17T06:15:25.945Z,87.21
2023-08-17T06:17:52.605Z,87.19
2023-08-17T06:20:19.615Z,87.00
2023-08-17T06:22:49.322Z,86.79
2023-08-17T06:25:16.077Z,86.76
2023-08-17T06:27:43.198Z,85.87
2023-08-17T06:30:10.422Z,85.88
2023-08-17T06:32:37.018Z,85.82
2023-08-17T06:35:03.922Z,85.73
2023-08-17T06:37:30.525Z,85.70
2023-08-17T06:39:57.076Z,85.41
2023-08-17T06:42:23.650Z,85.01
2023-08-17T06:44:50.302Z,85.33
2023-08-17T06:47:16.864Z,84.91
2023-08-17T06:49:43.525Z,85.29
2023-08-17T06:52:10.175Z,84.91
2023-08-17T06:54:36.846Z,84.48
2023-08-17T06:57:03.403Z,84.44
2023-08-17T06:59:29.989Z,83.78
2023-08-17T07:01:57.996Z,83.38
2023-08-17T07:04:24.647Z,83.18
2023-08-17T07:06:51.615Z,82.98
2023-08-17T07:09:18.260Z,82.82
2023-08-17T07:11:44.943Z,82.88
2023-08-17T07:14:11.529Z,83.38
2023-08-17T07:16:38.161Z,83.17
2023-08-17T07:19:05.412Z,83.49
2023-08-17T07:21:32.118Z,83.35
2023-08-17T07:23:58.661Z,83.47
2023-08-17T07:26:25.297Z,82.97
2023-08-17T07:28:51.847Z,82.73
2023-08-17T07:31:18.465Z,82.54
2023-08-17T07:33:45.049Z,82.15
2023-08-17T07:36:11.683Z,82.11
2023-08-17T07:38:38.234Z,81.60
2023-08-17T07:41:04.828Z,81.36
2023-08-17T07:43:31.472Z,81.08
2023-08-17T07:45:58.500Z,81.22
2023-08-17T07:48:25.232Z,80.00
2023-08-17T07:50:53.039Z,79.24
2023-08-17T07:53:20.470Z,78.68
2023-08-17T07:55:47.148Z,76.98
2023-08-17T07:58:14.063Z,78.55
2023-08-17T08:00:40.694Z,78.21
2023-08-17T08:03:07.317Z,78.66
2023-08-17T08:05:33.997Z,78.68
2023-08-17T08:08:00.651Z,78.85
2023-08-17T08:10:28.830Z,79.01
2023-08-17T08:12:56.066Z,78.35
2023-08-17T08:15:22.729Z,77.68
2023-08-17T08:17:49.409Z,77.68
2023-08-17T08:20:16.054Z,77.56
2023-08-17T08:22:42.685Z,76.80
2023-08-17T08:25:09.267Z,76.94
2023-08-17T08:27:35.835Z,76.69
2023-08-17T08:30:02.384Z,76.67
2023-08-17T08:32:30.844Z,76.79
2023-08-17T08:34:57.601Z,76.11
2023-08-17T08:37:25.225Z,76.14
2023-08-17T08:39:56.612Z,74.68
2023-08-17T08:42:26.032Z,75.13
2023-08-17T08:44:52.682Z,75.15
2023-08-17T08:47:19.762Z,74.90
2023-08-17T08:50:03.325Z,74.17
2023-08-17T08:52:41.624Z,74.02
2023-08-17T08:55:18.724Z,74.08
2023-08-17T08:57:51.791Z,73.92
2023-08-17T09:00:19.401Z,72.66
2023-08-17T09:02:46.969Z,71.09
2023-08-17T09:05:15.096Z,70.42
2023-08-17T09:07:43.574Z,69.41
2023-08-17T09:10:11.625Z,70.05
2023-08-17T09:12:41.295Z,69.03
2023-08-17T09:15:09.012Z,69.30
2023-08-17T09:17:35.756Z,69.98
2023-08-17T09:20:02.589Z,71.41
2023-08-17T09:22:40.256Z,70.04
2023-08-17T09:25:07.849Z,70.66
2023-08-17T09:27:34.488Z,71.08
2023-08-17T09:30:08.259Z,71.27
2023-08-17T09:32:35.228Z,70.24
2023-08-17T09:35:06.625Z,66.30
2023-08-17T09:37:34.221Z,63.93
2023-08-17T09:40:01.513Z,65.61
2023-08-17T09:42:29.162Z,66.98
2023-08-17T09:44:56.690Z,68.11
2023-08-17T09:47:23.981Z,66.12
2023-08-17T09:49:53.161Z,66.06
2023-08-17T09:52:25.279Z,66.76
2023-08-17T09:54:53.447Z,65.26
2023-08-17T09:57:22.927Z,63.20
2023-08-17T09:59:54.066Z,63.84
2023-08-17T10:02:25.055Z,62.64
2023-08-17T10:04:58.872Z,62.03
2023-08-17T10:07:34.330Z,62.34
2023-08-17T10:10:04.333Z,62.29
2023-08-17T10:12:37.272Z,63.31
2023-08-17T10:15:11.820Z,64.23
2023-08-17T10:17:55.932Z,60.56
2023-08-17T10:20:24.348Z,59.11
2023-08-17T10:23:02.038Z,56.43
2023-08-17T10:25:28.800Z,57.09
2023-08-17T10:28:00.067Z,56.70
2023-08-17T10:30:27.067Z,54.06
2023-08-17T10:32:53.711Z,57.29
2023-08-17T10:35:20.648Z,55.31
2023-08-17T10:37:47.690Z,55.71
2023-08-17T10:40:15.765Z,58.45
2023-08-17T10:42:42.622Z,59.65
2023-08-17T10:45:30.795Z,64.79
2023-08-17T10:48:01.237Z,64.47
2023-08-17T10:50:27.870Z,65.48
2023-08-17T10:52:55.182Z,65.24
2023-08-17T10:55:42.000Z,64.09
2023-08-17T10:58:15.092Z,61.64
2023-08-17T11:00:43.252Z,62.89
2023-08-17T11:03:18.128Z,60.77
2023-08-17T11:05:56.771Z,62.85
2023-08-17T11:08:34.528Z,55.32
2023-08-17T11:11:10.629Z,59.30
2023-08-17T11:13:39.962Z,60.67
2023-08-17T11:16:08.508Z,60.52
2023-08-17T11:18:35.834Z,62.48
2023-08-17T11:21:10.406Z,58.75
2023-08-17T11:23:38.227Z,62.15
2023-08-17T11:26:05.536Z,61.43
2023-08-17T11:28:42.533Z,61.78
2023-08-17T11:31:11.762Z,62.33
2023-08-17T11:33:40.870Z,63.03
2023-08-17T11:36:10.753Z,62.52
2023-08-17T11:38:42.194Z,61.82
2023-08-17T11:41:10.108Z,64.34
2023-08-17T11:43:38.491Z,62.58
2023-08-17T11:46:06.279Z,64.21
2023-08-17T11:51:02.989Z,64.01
2023-08-17T11:53:37.682Z,66.00
2023-08-17T11:56:07.089Z,65.94
2023-08-17T11:58:45.473Z,65.28
2023-08-17T12:01:14.085Z,66.12
2023-08-17T12:03:42.248Z,65.90
2023-08-17T12:06:10.225Z,67.35
2023-08-17T12:08:36.876Z,66.34
2023-08-17T12:11:04.352Z,65.01
2023-08-17T12:13:35.624Z,66.16
2023-08-17T12:16:02.947Z,65.61
2023-08-17T12:18:30.061Z,66.57
2023-08-17T12:20:57.015Z,65.95
2023-08-17T12:23:23.701Z,64.70
2023-08-17T12:25:56.990Z,62.77
2023-08-17T12:28:25.255Z,59.46
2023-08-17T12:31:03.359Z,58.46
2023-08-17T12:33:30.280Z,56.86
2023-08-17T12:35:57.180Z,53.96
2023-08-17T12:38:26.303Z,54.02
2023-08-17T12:40:53.328Z,50.41
2023-08-17T12:43:20.043Z,53.71
2023-08-17T12:45:46.623Z,50.02
2023-08-17T12:48:13.661Z,48.32
2023-08-17T12:50:43.861Z,48.29
2023-08-17T12:53:10.853Z,42.56
2023-08-17T12:55:37.459Z,42.24
2023-08-17T12:58:04.233Z,42.31
2023-08-17T13:00:30.807Z,43.70
2023-08-17T13:02:57.443Z,38.00
2023-08-17T13:05:24.096Z,40.34
2023-08-17T13:07:50.708Z,44.00
2023-08-17T13:10:17.335Z,42.15
2023-08-17T13:12:43.941Z,39.45
2023-08-17T13:15:10.627Z,38.00
2023-08-17T13:17:37.241Z,40.51
2023-08-17T13:20:06.282Z,36.79
2023-08-17T13:22:33.591Z,36.31
2023-08-17T13:25:00.232Z,37.41
2023-08-17T13:27:26.831Z,40.52
2023-08-17T13:29:53.482Z,38.27
2023-08-17T13:32:20.252Z,42.18
2023-08-17T13:34:46.962Z,40.85
2023-08-17T13:37:13.535Z,42.70
2023-08-17T13:39:40.106Z,43.37
2023-08-17T13:42:06.795Z,39.26
2023-08-17T13:44:33.350Z,40.22
2023-08-17T13:46:59.935Z,37.39
2023-08-17T13:49:26.618Z,37.85
2023-08-17T13:51:53.256Z,40.55
2023-08-17T13:54:19.836Z,38.34
2023-08-17T13:56:46.599Z,37.52
2023-08-17T13:59:13.154Z,41.14
2023-08-17T14:01:39.859Z,42.98
2023-08-17T14:04:12.375Z,43.73
2023-08-17T14:06:39.844Z,44.05
2023-08-17T14:09:06.487Z,44.08
2023-08-17T14:11:33.205Z,42.06
2023-08-17T14:13:59.804Z,42.74
2023-08-17T14:16:26.478Z,45.62
2023-08-17T14:18:53.600Z,45.88
2023-08-17T14:21:20.165Z,45.48
2023-08-17T14:23:47.706Z,45.42
2023-08-17T14:26:14.337Z,43.65
2023-08-17T14:28:44.526Z,43.44
2023-08-17T14:31:16.687Z,47.29
2023-08-17T14:33:43.300Z,45.02
2023-08-17T14:36:09.858Z,43.94
2023-08-17T14:38:37.037Z,45.19
2023-08-17T14:41:05.521Z,43.72
2023-08-17T14:43:32.129Z,43.34
2023-08-17T14:45:59.293Z,43.44
2023-08-17T14:48:26.094Z,44.68
2023-08-17T14:50:52.967Z,45.45
2023-08-17T14:53:19.560Z,45.63
2023-08-17T14:55:49.995Z,42.21
2023-08-17T14:58:17.221Z,43.43
2023-08-17T15:00:43.928Z,39.90
2023-08-17T15:03:10.668Z,39.02
2023-08-17T15:05:38.447Z,37.69
2023-08-17T15:08:05.461Z,37.50
2023-08-17T15:10:33.637Z,38.50
2023-08-17T15:13:00.212Z,39.14
2023-08-17T15:15:26.808Z,37.31
2023-08-17T15:17:53.442Z,37.67
2023-08-17T15:20:20.062Z,39.28
2023-08-17T15:22:46.647Z,38.24
2023-08-17T15:25:13.223Z,40.17
2023-08-17T15:27:39.823Z,43.67
2023-08-17T15:30:07.013Z,43.67
2023-08-17T15:32:33.749Z,44.47
2023-08-17T15:35:00.440Z,46.50
2023-08-17T15:37:27.485Z,48.70
2023-08-17T15:39:54.428Z,49.53
2023-08-17T15:42:20.989Z,48.32
2023-08-17T15:44:47.650Z,49.18
2023-08-17T15:47:14.230Z,51.41
2023-08-17T15:49:40.776Z,55.48
2023-08-17T15:52:08.894Z,60.32
2023-08-17T15:54:37.544Z,65.08
2023-08-17T15:57:06.845Z,71.54
2023-08-17T15:59:33.910Z,72.73
2023-08-17T16:02:00.473Z,72.70
2023-08-17T16:04:27.039Z,70.28
2023-08-17T16:06:53.754Z,71.38
2023-08-17T16:09:22.208Z,70.70
2023-08-17T16:11:48.991Z,70.91
2023-08-17T16:14:15.535Z,71.82
2023-08-17T16:16:42.124Z,73.34
2023-08-17T16:19:09.149Z,72.34
2023-08-17T16:21:38.049Z,71.77
2023-08-17T16:24:05.413Z,71.90
2023-08-17T16:26:34.619Z,71.26
2023-08-17T16:29:01.633Z,70.40
2023-08-17T16:31:28.387Z,72.89
2023-08-17T16:33:54.960Z,72.47
2023-08-17T16:36:21.596Z,71.59
2023-08-17T16:38:49.269Z,73.59
2023-08-17T16:41:21.643Z,73.94
2023-08-17T16:43:48.847Z,72.54
2023-08-17T16:46:16.028Z,72.46
2023-08-17T16:48:42.861Z,73.05
2023-08-17T16:51:09.412Z,73.23
2023-08-17T16:53:35.938Z,72.96
2023-08-17T16:56:02.874Z,72.50
2023-08-17T16:58:29.477Z,71.98
2023-08-17T17:00:56.104Z,74.07
2023-08-17T17:03:22.709Z,73.87
2023-08-17T17:05:49.258Z,74.26
2023-08-17T17:08:15.804Z,72.68
2023-08-17T17:10:42.364Z,73.61
2023-08-17T17:13:08.986Z,72.01
2023-08-17T17:15:35.685Z,70.84
2023-08-17T17:18:02.302Z,69.37
2023-08-17T17:20:28.946Z,69.26
2023-08-17T17:22:55.542Z,70.49
2023-08-17T17:25:22.088Z,70.42
2023-08-17T17:27:48.808Z,70.17
2023-08-17T17:30:15.398Z,69.90
2023-08-17T17:32:42.011Z,69.20
2023-08-17T17:35:08.593Z,67.58
2023-08-17T17:37:35.109Z,67.03
2023-08-17T17:40:01.799Z,68.85
2023-08-17T17:42:28.371Z,69.54
2023-08-17T17:44:57.927Z,70.28
2023-08-17T17:47:26.281Z,72.81
2023-08-17T17:49:53.097Z,74.36
2023-08-17T17:52:19.648Z,75.70
2023-08-17T17:54:46.270Z,75.17
2023-08-17T17:57:12.793Z,74.88
2023-08-17T17:59:39.357Z,75.01
2023-08-17T18:02:06.757Z,71.61
2023-08-17T18:04:33.411Z,70.71
2023-08-17T18:06:59.987Z,70.88
2023-08-17T18:09:27.488Z,71.20
2023-08-17T18:11:54.146Z,73.56
2023-08-17T18:14:20.793Z,74.07
2023-08-17T18:16:47.460Z,74.64
2023-08-17T18:19:14.152Z,75.31
2023-08-17T18:21:40.737Z,74.05
2023-08-17T18:24:08.349Z,74.60
2023-08-17T18:26:34.949Z,75.03
2023-08-17T18:29:02.491Z,74.88
2023-08-17T18:31:29.052Z,75.42
2023-08-17T18:33:55.755Z,76.15
2023-08-17T18:36:22.462Z,76.29
2023-08-17T18:38:49.114Z,77.41
2023-08-17T18:41:15.977Z,76.91
2023-08-17T18:43:42.554Z,75.87
2023-08-17T18:46:09.135Z,77.31
2023-08-17T18:48:35.796Z,79.14
2023-08-17T18:51:02.532Z,79.63
2023-08-17T18:53:29.124Z,78.15
2023-08-17T18:55:55.676Z,76.57
2023-08-17T18:58:22.220Z,76.88
2023-08-17T19:00:48.898Z,78.92
2023-08-17T19:03:15.619Z,78.45
2023-08-17T19:05:42.306Z,78.46
2023-08-17T19:08:08.911Z,78.05
2023-08-17T19:10:35.462Z,79.56
2023-08-17T19:13:01.986Z,79.14
2023-08-17T19:15:28.556Z,77.85
2023-08-17T19:17:55.158Z,77.76
2023-08-17T19:20:21.773Z,78.11
2023-08-17T19:22:48.324Z,78.12
2023-08-17T19:25:14.952Z,78.65
2023-08-17T19:27:41.601Z,79.99
2023-08-17T19:30:11.495Z,79.37
2023-08-17T19:32:41.249Z,79.82
2023-08-17T19:35:08.263Z,79.91
2023-08-17T19:37:35.308Z,80.11
2023-08-17T19:40:04.033Z,81.43
2023-08-17T19:42:30.906Z,82.53
2023-08-17T19:44:57.506Z,80.94
2023-08-17T19:47:24.154Z,80.51
2023-08-17T19:49:50.817Z,81.77
2023-08-17T19:52:17.765Z,81.79
2023-08-17T19:54:48.284Z,81.35
2023-08-17T19:57:15.026Z,81.12
2023-08-17T19:59:41.622Z,81.10
2023-08-17T20:02:08.205Z,82.59
2023-08-17T20:04:34.854Z,83.01
2023-08-17T20:07:01.460Z,82.97
2023-08-17T20:09:28.041Z,82.63
2023-08-17T20:11:54.581Z,81.69
2023-08-17T20:14:23.264Z,81.06
2023-08-17T20:16:51.403Z,81.10
2023-08-17T20:19:18.478Z,82.09
2023-08-17T20:21:45.277Z,82.16
2023-08-17T20:24:11.921Z,81.54
2023-08-17T20:26:38.550Z,81.91
2023-08-17T20:29:05.114Z,81.79
2023-08-17T20:31:31.885Z,82.41
2023-08-17T20:33:58.559Z,82.20
2023-08-17T20:36:25.105Z,82.30
2023-08-17T20:38:53.055Z,81.69
2023-08-17T20:41:20.861Z,83.18
2023-08-17T20:43:47.681Z,81.83
2023-08-17T20:46:14.501Z,81.53
2023-08-17T20:48:41.323Z,82.53
2023-08-17T20:51:08.742Z,83.50
2023-08-17T20:53:36.463Z,83.37
2023-08-17T20:56:03.960Z,82.27
2023-08-17T20:58:30.672Z,82.37
2023-08-17T21:00:59.354Z,82.49
2023-08-17T21:03:26.119Z,83.31
2023-08-17T21:05:52.783Z,83.10
2023-08-17T21:08:19.391Z,81.86
2023-08-17T21:10:48.783Z,80.46
2023-08-17T21:13:15.344Z,80.70
2023-08-17T21:15:41.983Z,81.61
2023-08-17T21:18:08.683Z,80.88
2023-08-17T21:20:35.485Z,81.86
2023-08-17T21:23:02.056Z,82.26
2023-08-17T21:25:28.613Z,81.87
2023-08-17T21:27:55.217Z,82.39
2023-08-17T21:30:22.204Z,82.52
2023-08-17T21:32:49.218Z,82.92
2023-08-17T21:35:15.847Z,82.83
2023-08-17T21:37:44.105Z,82.42
2023-08-17T21:40:14.759Z,82.62
2023-08-17T21:42:41.283Z,82.24
2023-08-17T21:45:08.611Z,83.21
2023-08-17T21:47:35.285Z,83.22
2023-08-17T21:50:01.986Z,82.91
2023-08-17T21:52:28.556Z,81.67
2023-08-17T21:54:55.120Z,82.09
2023-08-17T21:57:21.675Z,82.00
2023-08-17T21:59:48.226Z,81.54
2023-08-17T22:02:14.834Z,80.67
2023-08-17T22:04:41.391Z,79.73
2023-08-17T22:07:07.980Z,78.40
2023-08-17T22:09:34.773Z,78.71
2023-08-17T22:12:01.895Z,77.30
2023-08-17T22:14:30.301Z,77.12
2023-08-17T22:16:57.729Z,75.93
2023-08-17T22:19:24.988Z,77.78
2023-08-17T22:21:51.592Z,78.78
2023-08-17T22:24:18.221Z,78.65
2023-08-17T22:26:44.740Z,78.93
2023-08-17T22:29:11.376Z,79.67
2023-08-17T22:31:37.976Z,79.34
2023-08-17T22:34:04.551Z,79.41
2023-08-17T22:36:31.143Z,79.72
2023-08-17T22:38:57.705Z,80.60
2023-08-17T22:41:24.544Z,80.19
2023-08-17T22:43:51.165Z,79.81
2023-08-17T22:46:17.770Z,80.55
2023-08-17T22:48:44.777Z,79.98
2023-08-17T22:51:14.536Z,80.45
2023-08-17T22:53:42.069Z,79.80
2023-08-17T22:56:08.767Z,79.13
2023-08-17T22:58:35.379Z,78.85
2023-08-17T23:01:02.061Z,78.68
2023-08-17T23:03:28.691Z,79.32
2023-08-17T23:05:55.279Z,78.43
2023-08-17T23:08:21.951Z,79.13
2023-08-17T23:10:48.478Z,78.18
2023-08-17T23:13:15.068Z,78.08
2023-08-17T23:15:41.593Z,77.47
2023-08-17T23:18:08.191Z,75.83
2023-08-17T23:20:34.811Z,76.83
2023-08-17T23:23:01.356Z,76.56
2023-08-17T23:25:28.163Z,77.04
2023-08-17T23:27:55.630Z,78.35
2023-08-17T23:30:22.436Z,79.05
2023-08-17T23:32:51.486Z,78.99
2023-08-17T23:35:18.062Z,79.58
2023-08-17T23:37:44.650Z,79.89
2023-08-17T23:40:12.475Z,79.62
2023-08-17T23:42:39.023Z,80.07
2023-08-17T23:45:06.866Z,80.27
2023-08-17T23:47:33.500Z,80.30
2023-08-17T23:50:00.283Z,79.84
2023-08-17T23:52:26.822Z,80.60
2023-08-17T23:54:53.442Z,80.12
2023-08-17T23:57:19.983Z,80.13
2023-08-17T23:59:46.595Z,80.48
